createdAt,value
2023-03-15T00:04:48.871Z,98774.93
2023-03-15T00:09:51.161Z,98779.85
2023-03-15T00:14:53.036Z,98795.56
2023-03-15T00:19:55.321Z,98807.96
2023-03-15T00:24:57.067Z,98820.66
2023-03-15T00:29:59.381Z,98833.08
2023-03-15T00:35:01.388Z,98834.27
2023-03-15T00:40:04.420Z,98839.05
2023-03-15T00:45:07.574Z,98856.26
2023-03-15T00:50:09.463Z,98865.40
2023-03-15T00:55:13.580Z,98870.13
2023-03-15T01:00:24.104Z,98892.07
2023-03-15T01:05:26.342Z,98902.56
2023-03-15T01:10:28.427Z,98902.20
2023-03-15T01:15:30.427Z,98904.07
2023-03-15T01:20:33.004Z,98910.68
2023-03-15T01:25:34.772Z,98929.48
2023-03-15T01:30:36.750Z,98946.99
2023-03-15T01:35:38.662Z,98962.83
2023-03-15T01:40:45.320Z,98964.86
2023-03-15T01:45:58.970Z,98963.93
2023-03-15T01:51:11.603Z,98959.23
2023-03-15T01:56:14.804Z,98975.67
2023-03-15T02:01:16.952Z,98989.84
2023-03-15T02:06:20.551Z,98988.66
2023-03-15T02:11:25.726Z,99005.63
2023-03-15T02:16:29.330Z,99036.61
2023-03-15T02:21:56.757Z,99031.33
2023-03-15T02:26:58.575Z,99021.75
2023-03-15T02:32:04.163Z,99033.55
2023-03-15T02:37:06.285Z,99043.81
2023-03-15T02:42:08.566Z,99039.16
2023-03-15T02:47:18.634Z,99057.23
2023-03-15T02:52:21.855Z,99075.05
2023-03-15T02:57:23.626Z,99092.43
2023-03-15T03:02:25.639Z,99119.20
2023-03-15T03:07:27.582Z,99134.17
2023-03-15T03:12:29.455Z,99143.08
2023-03-15T03:17:31.230Z,99155.44
2023-03-15T03:22:34.854Z,99154.91
2023-03-15T03:27:36.826Z,99153.86
2023-03-15T03:32:40.771Z,99158.14
2023-03-15T03:37:42.728Z,99168.95
2023-03-15T03:42:44.662Z,99182.23
2023-03-15T03:47:47.601Z,99199.38
2023-03-15T03:52:49.685Z,99214.48
2023-03-15T03:57:54.732Z,99226.77
2023-03-15T04:02:57.027Z,99241.90
2023-03-15T04:07:58.895Z,99254.16
2023-03-15T04:13:01.388Z,99264.60
2023-03-15T04:18:05.428Z,99271.15
2023-03-15T04:23:07.699Z,99280.93
2023-03-15T04:28:12.524Z,99288.47
2023-03-15T04:33:14.434Z,99305.89
2023-03-15T04:38:16.307Z,99312.13
2023-03-15T04:43:18.086Z,99311.21
2023-03-15T04:48:19.867Z,99319.48
2023-03-15T04:53:22.041Z,99325.65
2023-03-15T04:58:23.923Z,99340.58
2023-03-15T05:03:25.696Z,99348.49
2023-03-15T05:08:27.418Z,99366.14
2023-03-15T05:13:29.660Z,99378.98
2023-03-15T05:18:31.533Z,99388.44
2023-03-15T05:23:33.717Z,99395.88
2023-03-15T05:28:35.484Z,99410.15
2023-03-15T05:33:37.161Z,99424.96
2023-03-15T05:38:39.031Z,99435.98
2023-03-15T05:43:40.706Z,99442.96
2023-03-15T05:48:42.378Z,99454.09
2023-03-15T05:53:46.010Z,99459.11
2023-03-15T05:58:48.280Z,99468.40
2023-03-15T06:03:50.130Z,99478.45
2023-03-15T06:08:51.926Z,99488.69
2023-03-15T06:13:53.745Z,99493.31
2023-03-15T06:18:55.477Z,99503.27
2023-03-15T06:23:57.670Z,99510.59
2023-03-15T06:28:59.532Z,99523.05
2023-03-15T06:34:02.751Z,99534.42
2023-03-15T06:39:05.305Z,99541.94
2023-03-15T06:44:08.854Z,99557.08
2023-03-15T06:49:10.843Z,99563.27
2023-03-15T06:54:13.324Z,99566.83
2023-03-15T06:59:15.421Z,99570.61
2023-03-15T07:04:17.598Z,99574.92
2023-03-15T07:09:20.082Z,99585.76
2023-03-15T07:14:22.173Z,99596.58
2023-03-15T07:19:23.836Z,99599.34
2023-03-15T07:24:26.945Z,99609.79
2023-03-15T07:29:28.718Z,99614.94
2023-03-15T07:34:30.820Z,99619.00
2023-03-15T07:39:33.800Z,99622.52
2023-03-15T07:44:35.881Z,99634.38
2023-03-15T07:49:38.176Z,99638.08
2023-03-15T07:54:40.454Z,99645.41
2023-03-15T07:59:42.434Z,99660.47
2023-03-15T08:04:44.512Z,99665.66
2023-03-15T08:09:46.293Z,99675.20
2023-03-15T08:14:48.065Z,99683.55
2023-03-15T08:19:49.835Z,99691.33
2023-03-15T08:24:52.807Z,99703.34
2023-03-15T08:29:54.850Z,99713.36
2023-03-15T08:34:56.649Z,99719.45
2023-03-15T08:40:05.307Z,99731.01
2023-03-15T08:45:09.767Z,99733.79
2023-03-15T08:50:16.554Z,99738.15
2023-03-15T08:55:19.252Z,99748.38
2023-03-15T09:00:22.244Z,99757.94
2023-03-15T09:05:26.080Z,99769.29
2023-03-15T09:10:28.054Z,99781.95
2023-03-15T09:15:30.140Z,99788.98
2023-03-15T09:20:31.933Z,99791.07
2023-03-15T09:25:33.790Z,99794.55
2023-03-15T09:30:37.875Z,99808.89
2023-03-15T09:35:41.347Z,99816.40
2023-03-15T09:40:45.661Z,99824.15
2023-03-15T09:46:11.562Z,99833.51
2023-03-15T09:51:24.651Z,99831.94
2023-03-15T09:56:55.412Z,99837.20
2023-03-15T10:02:01.616Z,99838.67
2023-03-15T10:07:05.919Z,99844.83
2023-03-15T10:12:27.150Z,99849.38
2023-03-15T10:17:59.856Z,99851.43
2023-03-15T10:23:09.917Z,99850.36
2023-03-15T10:28:25.534Z,99852.27
2023-03-15T10:33:37.733Z,99859.51
2023-03-15T10:38:41.344Z,99864.84
2023-03-15T10:43:58.072Z,99868.91
2023-03-15T10:49:11.623Z,99867.77
2023-03-15T10:54:18.928Z,99875.14
2023-03-15T10:59:24.383Z,99874.73
2023-03-15T11:04:27.390Z,99873.34
2023-03-15T11:09:44.317Z,99877.23
2023-03-15T11:14:48.445Z,99883.52
2023-03-15T11:19:59.423Z,99891.66
2023-03-15T11:25:01.648Z,99897.67
2023-03-15T11:30:05.615Z,99902.25
2023-03-15T11:35:15.110Z,99909.30
2023-03-15T11:40:53.432Z,99908.25
2023-03-15T11:46:13.544Z,99912.74
2023-03-15T11:51:16.955Z,99914.52
2023-03-15T11:56:38.692Z,99920.83
2023-03-15T12:02:21.051Z,99916.84
2023-03-15T12:07:28.331Z,99923.02
2023-03-15T12:12:30.411Z,99927.14
2023-03-15T12:17:49.591Z,99932.59
2023-03-15T12:22:53.825Z,99937.98
2023-03-15T12:27:58.357Z,99942.59
2023-03-15T12:33:02.975Z,99942.03
2023-03-15T12:38:16.853Z,99938.24
2023-03-15T12:43:44.537Z,99937.36
2023-03-15T12:49:11.914Z,99936.77
2023-03-15T12:54:16.856Z,99952.98
2023-03-15T12:59:54.696Z,99978.91
2023-03-15T13:05:28.934Z,99995.93
2023-03-15T13:11:05.196Z,99991.70
2023-03-15T13:16:19.417Z,99976.81
2023-03-15T13:21:31.988Z,99980.40
2023-03-15T13:26:50.565Z,99993.44
2023-03-15T13:32:12.204Z,100005.21
2023-03-15T13:37:25.057Z,100007.73
2023-03-15T13:42:27.425Z,100015.14
2023-03-15T13:47:29.399Z,100030.81
2023-03-15T13:52:31.688Z,100039.01
2023-03-15T13:57:35.199Z,100044.44
2023-03-15T14:02:42.953Z,100046.61
2023-03-15T14:07:49.311Z,100056.42
2023-03-15T14:12:52.492Z,100062.02
2023-03-15T14:17:59.303Z,100063.65
2023-03-15T14:23:04.350Z,100068.23
2023-03-15T14:28:06.494Z,100071.48
2023-03-15T14:33:32.281Z,100073.00
2023-03-15T14:38:39.502Z,100072.90
2023-03-15T14:43:41.349Z,100071.48
2023-03-15T14:48:44.150Z,100073.11
2023-03-15T14:53:48.590Z,100074.91
2023-03-15T14:58:53.533Z,100079.04
2023-03-15T15:04:02.890Z,100078.41
2023-03-15T15:09:06.440Z,100086.42
2023-03-15T15:14:15.187Z,100089.95
2023-03-15T15:19:17.117Z,100094.36
2023-03-15T15:24:22.780Z,100109.48
2023-03-15T15:29:24.966Z,100131.84
2023-03-15T15:34:26.741Z,100142.18
2023-03-15T15:39:29.240Z,100149.92
2023-03-15T15:44:31.009Z,100157.87
2023-03-15T15:49:33.185Z,100163.01
2023-03-15T15:54:35.951Z,100162.18
2023-03-15T15:59:38.028Z,100159.39
2023-03-15T16:04:42.238Z,100158.06
2023-03-15T16:09:48.746Z,100162.74
2023-03-15T16:14:51.989Z,100166.63
2023-03-15T16:19:55.304Z,100168.66
2023-03-15T16:25:01.496Z,100176.52
2023-03-15T16:30:09.946Z,100186.96
2023-03-15T16:35:16.283Z,100197.55
2023-03-15T16:40:27.378Z,100203.68
2023-03-15T16:45:29.884Z,100202.52
2023-03-15T16:50:32.993Z,100212.80
2023-03-15T16:55:36.170Z,100215.52
2023-03-15T17:00:44.601Z,100223.88
2023-03-15T17:05:49.262Z,100233.25
2023-03-15T17:10:51.852Z,100238.82
2023-03-15T17:15:54.064Z,100248.49
2023-03-15T17:20:56.328Z,100259.00
2023-03-15T17:25:58.412Z,100259.54
2023-03-15T17:31:20.258Z,100259.88
2023-03-15T17:36:25.412Z,100264.45
2023-03-15T17:41:36.809Z,100271.23
2023-03-15T17:46:38.760Z,100273.50
2023-03-15T17:51:41.102Z,100277.92
2023-03-15T17:56:43.484Z,100284.79
2023-03-15T18:01:48.311Z,100297.44
2023-03-15T18:06:50.290Z,100300.33
2023-03-15T18:11:52.278Z,100297.14
2023-03-15T18:16:54.123Z,100301.17
2023-03-15T18:21:56.437Z,100302.45
2023-03-15T18:27:00.252Z,100301.70
2023-03-15T18:32:03.088Z,100301.96
2023-03-15T18:37:05.440Z,100309.14
2023-03-15T18:42:08.746Z,100315.23
2023-03-15T18:47:10.845Z,100316.73
2023-03-15T18:52:16.162Z,100318.50
2023-03-15T18:57:20.608Z,100324.54
2023-03-15T19:02:23.046Z,100330.38
2023-03-15T19:07:27.455Z,100339.67
2023-03-15T19:12:29.536Z,100342.91
2023-03-15T19:17:31.305Z,100346.66
2023-03-15T19:22:33.901Z,100352.12
2023-03-15T19:27:37.742Z,100360.06
2023-03-15T19:32:42.641Z,100359.34
2023-03-15T19:37:46.188Z,100363.42
2023-03-15T19:42:49.301Z,100372.15
2023-03-15T19:47:51.172Z,100375.66
2023-03-15T19:52:53.150Z,100381.27
2023-03-15T19:57:55.436Z,100378.89
2023-03-15T20:02:58.032Z,100382.98
2023-03-15T20:08:01.761Z,100385.40
2023-03-15T20:13:05.267Z,100391.06
2023-03-15T20:18:10.315Z,100392.72
2023-03-15T20:23:13.035Z,100395.80
2023-03-15T20:28:18.297Z,100395.77
2023-03-15T20:33:20.666Z,100397.77
2023-03-15T20:38:23.058Z,100400.84
2023-03-15T20:43:26.592Z,100405.95
2023-03-15T20:48:30.822Z,100405.79
2023-03-15T20:53:35.286Z,100411.20
2023-03-15T20:58:37.105Z,100416.77
2023-03-15T21:03:39.318Z,100420.77
2023-03-15T21:08:43.422Z,100425.58
2023-03-15T21:13:46.434Z,100424.60
2023-03-15T21:18:51.380Z,100430.40
2023-03-15T21:23:53.983Z,100432.63
2023-03-15T21:28:56.352Z,100436.15
2023-03-15T21:33:58.227Z,100439.54
2023-03-15T21:39:01.134Z,100439.80
2023-03-15T21:44:05.351Z,100443.30
2023-03-15T21:49:08.251Z,100444.45
2023-03-15T21:54:10.748Z,100454.09
2023-03-15T21:59:14.360Z,100456.63
2023-03-15T22:04:16.923Z,100456.58
2023-03-15T22:09:20.444Z,100463.12
2023-03-15T22:14:23.681Z,100468.80
2023-03-15T22:19:25.765Z,100469.58
2023-03-15T22:24:27.755Z,100473.68
2023-03-15T22:29:29.622Z,100478.89
2023-03-15T22:34:33.712Z,100482.98
2023-03-15T22:39:35.936Z,100480.41
2023-03-15T22:44:37.622Z,100479.85
2023-03-15T22:49:39.531Z,100485.92
2023-03-15T22:54:43.105Z,100492.16
2023-03-15T22:59:44.781Z,100493.43
2023-03-15T23:04:46.581Z,100494.06
2023-03-15T23:09:48.431Z,100495.79
2023-03-15T23:14:51.436Z,100500.23
2023-03-15T23:19:53.312Z,100502.09
2023-03-15T23:24:57.546Z,100507.27
2023-03-15T23:29:59.529Z,100509.38
2023-03-15T23:35:06.877Z,100517.66
2023-03-15T23:40:14.968Z,100526.39
2023-03-15T23:45:16.834Z,100533.77
2023-03-15T23:50:19.121Z,100534.45
2023-03-15T23:55:22.123Z,100536.00
